Flight Track Log - Related Links

Times and Time Zones

All times are in EDT time to prevent confusion due to time zone crossing. See the EJA922 flight status page for this flight to view local times or setup timezone preferences in your user account.

Time Position Orientation Groundspeed Altitude Reporting Facility
EDT Latitude Longitude Course Direction KTS MPH feet Rate Location/Type
Mon 10:49:48 AM 41.5833 -83.8731 276° West 198 228 2,600  Level Cleveland Center
Mon 10:50:48 AM 41.5875 -83.9425 275° West 204 235 5,400 3,467 Climbing Cleveland Center
Mon 10:51:18 AM 41.5958 -83.9878 284° West 251 289 7,800 3,065 Climbing Chicago Center
Mon 10:52:20 AM 41.6044 -84.0961 276° West 286 329 10,100 1,610 Climbing Chicago Center
Mon 10:53:21 AM 41.6139 -84.2372 275° West 370 426 11,100 1,024 Climbing Chicago Center
Mon 10:54:23 AM 41.5800 -84.3792 252° West 395 455 12,200 1,694 Climbing Chicago Center
Mon 10:55:00 AM 41.6001 -83.9673 276° West  Level FlightAware
Mon 10:55:25 AM 41.5931 -84.5258 277° West 407 468 14,600  Level Chicago Center
Mon 10:56:27 AM 41.6222 -84.6736 285° West 415 478 17,000 1,902 Climbing Chicago Center
Mon 10:57:28 AM 41.6578 -84.8533 285° West 418 481 18,500 1,317 Climbing Chicago Center
Mon 10:58:30 AM 41.6881 -85.0025 285° West 419 482 19,700 1,161 Climbing Chicago Center
Mon 10:59:32 AM 41.7164 -85.1525 284° West 419 482 20,900 1,171 Climbing Chicago Center
Mon 11:00:33 AM 41.7456 -85.2997 285° West 418 481 22,100 1,171 Climbing Chicago Center
Mon 11:01:35 AM 41.7739 -85.4467 285° West 419 482 23,300 1,258 Climbing Chicago Center
Mon 11:02:37 AM 41.8072 -85.6242 284° West 417 480 24,700 1,258 Climbing Chicago Center
Mon 11:03:39 AM 41.8347 -85.7744 284° West 419 482 25,900 1,171 Climbing Chicago Center
Mon 11:04:40 AM 41.8628 -85.9267 284° West 424 488 27,100 1,122 Climbing Chicago Center
Mon 11:05:42 AM 41.8911 -86.0783 284° West 422 486 28,200 1,065 Climbing Chicago Center
Mon 11:06:44 AM 41.9167 -86.2250 283° West 411 473 29,300 1,024 Climbing Chicago Center
Mon 11:07:45 AM 41.9444 -86.3694 285° West 403 464 30,300 1,073 Climbing Chicago Center
Mon 11:08:47 AM 41.9772 -86.5478 284° West 413 475 31,500 1,065 Climbing Chicago Center
Mon 11:09:49 AM 42.0056 -86.7042 284° West 420 483 32,500 976 Climbing Chicago Center
Mon 11:10:50 AM 42.0333 -86.8581 284° West 427 491 33,500 976 Climbing Chicago Center
Mon 11:11:52 AM 42.0603 -87.0142 283° West 433 498 34,500 919 Climbing Chicago Center
Mon 11:12:54 AM 42.0875 -87.1728 283° West 437 503 35,400 927 Climbing Chicago Center
Mon 11:13:55 AM 42.1158 -87.3358 283° West 449 517 36,400 1,122 Climbing Chicago Center
Mon 11:14:57 AM 42.1503 -87.5336 283° West 456 525 37,700 1,210 Climbing Chicago Center
Mon 11:15:59 AM 42.1781 -87.6975 283° West 457 526 38,900 1,073 Climbing Chicago Center
Mon 11:17:00 AM 42.2067 -87.8611 283° West 454 522 39,900 976 Climbing Chicago Center
Mon 11:18:02 AM 42.2283 -88.0297 280° West 459 528 40,900 968 Climbing Chicago Center
Mon 11:19:04 AM 42.2397 -88.2017 275° West 462 532 41,900 968 Climbing Chicago Center
Mon 11:20:06 AM 42.2528 -88.3686 276° West 455 524 42,900 537 Climbing Chicago Center
Mon 11:21:07 AM 42.2675 -88.5692 276° West 452 520 43,000 49 Climbing Chicago Center
Mon 11:22:09 AM 42.2806 -88.7433 276° West 467 537 43,000  Level Chicago Center
Mon 11:23:11 AM 42.2928 -88.9244 275° West 470 541 43,000  Level Chicago Center
Mon 11:24:12 AM 42.3044 -89.1042 275° West 475 547 43,000  Level Chicago Center
Mon 11:25:14 AM 42.3167 -89.2853 275° West 483 556 43,000  Level Chicago Center
Mon 11:26:16 AM 42.3289 -89.4650 275° West 480 552 43,000  Level Chicago Center
Mon 11:27:18 AM 42.3406 -89.6450 275° West 479 551 43,000  Level Chicago Center
Mon 11:28:19 AM 42.3531 -89.8547 275° West 479 551 43,000  Level Chicago Center
Mon 11:29:21 AM 42.3628 -90.0117 275° West 484 557 43,000  Level Chicago Center
Mon 11:30:23 AM 42.3731 -90.1917 274° West 484 557 43,000  Level Chicago Center
Mon 11:31:25 AM 42.3850 -90.4053 274° West 481 554 43,000  Level Chicago Center
Mon 11:32:27 AM 42.3947 -90.5839 274° West 480 552 43,000  Level Chicago Center
Mon 11:33:28 AM 42.4144 -90.7606 279° West 482 555 43,000  Level Chicago Center
Mon 11:34:30 AM 42.4625 -90.9281 291° West 478 550 43,000  Level Chicago Center
Mon 11:35:32 AM 42.5081 -91.0933 291° West 475 547 43,000  Level Chicago Center
Mon 11:36:34 AM 42.5631 -91.2964 290° West 479 551 43,000  Level Chicago Center
Mon 11:37:35 AM 42.6089 -91.4667 290° West 480 552 43,000  Level Chicago Center
Mon 11:38:37 AM 42.6539 -91.6347 290° West 482 555 43,000  Level Chicago Center
Mon 11:39:39 AM 42.7028 -91.8156 290° West 483 556 43,000  Level Chicago Center
Mon 11:40:41 AM 42.7478 -91.9853 290° West 476 548 43,000  Level Chicago Center
Mon 11:41:43 AM 42.7928 -92.1539 290° West 476 548 43,000  Level Chicago Center
Mon 11:42:45 AM 42.8367 -92.3236 289° West 479 551 43,000  Level Chicago Center
Mon 11:43:46 AM 42.8811 -92.4928 290° West 478 550 43,000  Level Chicago Center
Mon 11:44:48 AM 42.9333 -92.6958 289° West 479 551 43,000  Level Chicago Center
Mon 11:45:50 AM 42.9767 -92.8681 289° West 483 556 43,000  Level Chicago Center
Mon 11:46:52 AM 43.0203 -93.0392 289° West 482 555 43,000  Level Chicago Center
Mon 11:47:54 AM 43.0631 -93.2097 289° West 479 551 43,000  Level Chicago Center
Mon 11:48:56 AM 43.1050 -93.3806 289° West 479 551 43,000  Level Chicago Center
Mon 11:49:58 AM 43.1386 -93.5925 282° West 479 551 43,000  Level Chicago Center
Mon 11:51:00 AM 43.1706 -93.7675 284° West 479 551 43,000  Level Chicago Center
Mon 11:52:02 AM 43.2003 -93.9447 283° West 480 552 43,000  Level Chicago Center
Mon 11:53:23 AM 43.2428 -94.1908 283° West 479 551 43,000  Level Minneapolis Center
Mon 11:54:25 AM 43.2722 -94.3639 283° West 480 552 43,000  Level Minneapolis Center
Mon 11:55:27 AM 43.3014 -94.5439 283° West 482 555 43,000  Level Minneapolis Center
Mon 11:56:29 AM 43.3381 -94.7553 283° West 476 548 43,000  Level Minneapolis Center
Mon 11:57:31 AM 43.3667 -94.9331 283° West 476 548 43,000  Level Minneapolis Center
Mon 11:58:33 AM 43.3950 -95.1114 282° West 478 550 43,000  Level Minneapolis Center
Mon 11:59:35 AM 43.4236 -95.2892 283° West 477 549 43,000  Level Minneapolis Center
Mon 12:00:38 PM 43.4522 -95.4667 283° West 476 548 43,000  Level Minneapolis Center
Mon 12:01:40 PM 43.4803 -95.6444 282° West 476 548 43,000  Level Minneapolis Center
Mon 12:02:42 PM 43.5067 -95.8214 282° West 472 543 43,000  Level Minneapolis Center
Mon 12:03:44 PM 43.5397 -96.0347 282° West 472 543 43,000  Level Minneapolis Center
Mon 12:04:46 PM 43.5658 -96.2142 281° West 474 545 43,000  Level Minneapolis Center
Mon 12:05:48 PM 43.5931 -96.3947 282° West 477 549 43,000  Level Minneapolis Center
Mon 12:06:50 PM 43.6189 -96.5772 281° West 481 554 43,000  Level Minneapolis Center
Mon 12:07:52 PM 43.6461 -96.7575 282° West 479 551 43,000  Level Minneapolis Center
Mon 12:08:54 PM 43.6825 -96.9347 286° West 478 550 43,000  Level Minneapolis Center
Mon 12:09:56 PM 43.7236 -97.1108 288° West 481 554 43,000  Level Minneapolis Center
Mon 12:10:58 PM 43.7706 -97.3242 287° West 483 556 43,000 -97 Level Minneapolis Center
Mon 12:12:00 PM 43.8097 -97.5003 287° West 481 554 42,800 -919 Descending Minneapolis Center
Mon 12:13:02 PM 43.8481 -97.6758 287° West 477 549 41,100 -2,032 Descending Minneapolis Center
Mon 12:14:04 PM 43.8844 -97.8461 287° West 465 535 38,600 -2,468 Descending Minneapolis Center
Mon 12:15:06 PM 43.9214 -98.0158 287° West 460 529 36,000 -2,855 Descending Minneapolis Center
Mon 12:16:08 PM 43.9594 -98.1914 287° West 471 542 32,700 -3,387 Descending Minneapolis Center
Mon 12:17:10 PM 44.0061 -98.4103 287° West 492 566 29,000 -3,145 Descending Minneapolis Center
Mon 12:18:12 PM 44.0450 -98.5928 287° West 494 568 26,200 -2,468 Descending Minneapolis Center
Mon 12:19:14 PM 44.0778 -98.7569 286° West 481 554 23,900 -2,323 Descending Minneapolis Center
Mon 12:20:16 PM 44.1131 -98.9308 286° West 469 540 21,400 -2,419 Descending Minneapolis Center
Mon 12:21:18 PM 44.1475 -99.0972 286° West 456 525 18,900 -2,661 Descending Minneapolis Center
Mon 12:22:20 PM 44.1864 -99.2894 286° West 434 499 15,900 -2,661 Descending Minneapolis Center
Mon 12:23:22 PM 44.2172 -99.4475 285° West 425 489 13,400 -2,274 Descending Minneapolis Center
Mon 12:24:24 PM 44.2461 -99.5950 285° West 408 470 11,200 -1,645 Descending Minneapolis Center
Mon 12:25:26 PM 44.2747 -99.7381 286° West 393 452 10,000 -629 Descending Minneapolis Center
Mon 12:26:28 PM 44.3006 -99.8733 285° West 379 436 9,900 -629 Descending Minneapolis Center
Mon 12:27:30 PM 44.3222 -99.9692 288° West 308 354 8,700 -774 Descending Minneapolis Center
Mon 12:28:32 PM 44.3392 -100.0636 284° West 298 343 8,300 -387 Descending Minneapolis Center
Mon 12:30:00 PM 44.3667 -100.2833 270° West  Level FlightAware

Login

Don't have an account? Register now (free) for customized features, flight alerts, and more!